Time;durP1;ratioP1;P1;durP2;ratioP2;P2;SDS_P1;SDS_P2;PMS_P1;PMS_P2;Temp;Humidity;BMP_temperature;BMP_pressure;BME280_temperature;BME280_humidity;BME280_pressure;Samples;Min_cycle;Max_cycle;Signal;HPM_P1;HPM_P2
2021/07/09 00:02:43;;;;;;;19.80;17.70;;;20.50;99.90;;;;;;5031597;28;20394;-71
2021/07/09 00:05:09;;;;;;;18.92;17.02;;;20.50;99.90;;;;;;5028190;28;20072;-73
2021/07/09 00:07:34;;;;;;;22.40;18.77;;;20.50;99.90;;;;;;5031774;28;20068;-72
2021/07/09 00:10:00;;;;;;;19.13;16.95;;;20.40;99.90;;;;;;5033124;28;20029;-72
2021/07/09 00:12:26;;;;;;;22.00;18.42;;;20.40;99.90;;;;;;5033319;28;20025;-72
2021/07/09 00:14:51;;;;;;;18.42;16.52;;;20.40;99.90;;;;;;5034809;28;20029;-72
2021/07/09 00:17:17;;;;;;;20.50;17.67;;;20.50;99.90;;;;;;5031199;28;20079;-75
2021/07/09 00:19:43;;;;;;;22.15;16.73;;;20.30;99.90;;;;;;5034942;28;20071;-72
2021/07/09 00:22:09;;;;;;;19.00;15.55;;;20.30;99.90;;;;;;5028296;28;20022;-72
2021/07/09 00:24:35;;;;;;;17.17;14.77;;;20.20;99.90;;;;;;5026837;28;20086;-72
2021/07/09 00:27:03;;;;;;;17.63;15.40;;;20.30;99.90;;;;;;5034319;28;20027;-72
2021/07/09 00:29:29;;;;;;;20.95;14.63;;;20.20;99.90;;;;;;5033378;28;20572;-72
2021/07/09 00:31:55;;;;;;;21.15;14.02;;;20.20;99.90;;;;;;5032513;28;20144;-73
2021/07/09 00:34:21;;;;;;;19.73;14.10;;;20.30;99.90;;;;;;5026466;28;20029;-72
2021/07/09 00:36:46;;;;;;;18.67;14.55;;;20.20;99.90;;;;;;5031818;28;20033;-73
2021/07/09 00:39:12;;;;;;;19.48;14.48;;;20.20;99.90;;;;;;5032412;28;20112;-72
2021/07/09 00:41:38;;;;;;;19.92;14.75;;;20.30;99.90;;;;;;5028866;28;20026;-73
2021/07/09 00:44:05;;;;;;;15.85;13.57;;;20.20;99.90;;;;;;5030633;28;20013;-74
2021/07/09 00:46:31;;;;;;;15.98;14.07;;;20.10;99.90;;;;;;5029489;28;20027;-73
2021/07/09 00:48:56;;;;;;;20.77;16.27;;;20.10;99.90;;;;;;5030696;28;20472;-72
2021/07/09 00:51:22;;;;;;;18.08;15.25;;;20.00;99.90;;;;;;5029411;28;20061;-72
2021/07/09 00:53:48;;;;;;;23.00;15.60;;;20.10;99.90;;;;;;5030121;28;20029;-75
2021/07/09 00:56:13;;;;;;;20.50;15.70;;;20.10;99.90;;;;;;5033318;28;20036;-74
2021/07/09 00:58:39;;;;;;;20.95;16.63;;;20.10;99.90;;;;;;5036866;28;20112;-72
2021/07/09 01:01:05;;;;;;;20.42;14.75;;;20.10;99.90;;;;;;5031583;28;20045;-72
2021/07/09 01:03:30;;;;;;;17.65;14.30;;;20.00;99.90;;;;;;5028690;28;20033;-73
2021/07/09 01:05:56;;;;;;;16.65;14.18;;;20.00;99.90;;;;;;5028789;28;20109;-75
2021/07/09 01:08:22;;;;;;;19.98;14.93;;;19.90;99.90;;;;;;5032881;28;20067;-75
2021/07/09 01:10:48;;;;;;;17.38;14.23;;;19.90;99.90;;;;;;5034405;28;20513;-74
2021/07/09 01:13:14;;;;;;;16.10;13.73;;;19.90;99.90;;;;;;5029049;28;20030;-75
2021/07/09 01:15:40;;;;;;;16.73;12.80;;;19.90;99.90;;;;;;5030591;28;20033;-74
2021/07/09 01:18:06;;;;;;;18.98;15.77;;;19.90;99.90;;;;;;5032045;28;20037;-75
2021/07/09 01:20:32;;;;;;;21.45;16.23;;;19.80;99.90;;;;;;5030499;28;20037;-75
2021/07/09 01:22:58;;;;;;;17.45;14.30;;;19.80;99.90;;;;;;5032982;28;20057;-72
2021/07/09 01:25:27;;;;;;;20.75;15.52;;;19.80;99.90;;;;;;5030203;28;20068;-73
2021/07/09 01:28:03;;;;;;;15.65;12.32;;;19.80;99.90;;;;;;5032245;28;20097;-76
2021/07/09 01:30:29;;;;;;;16.13;13.55;;;19.80;99.90;;;;;;5025963;28;20027;-72
2021/07/09 01:32:56;;;;;;;17.50;12.82;;;19.80;99.90;;;;;;5029550;28;20498;-75
2021/07/09 01:35:27;;;;;;;21.38;15.50;;;19.80;99.90;;;;;;5031251;28;20049;-74
2021/07/09 01:38:02;;;;;;;20.67;17.30;;;19.80;99.90;;;;;;5030620;28;20026;-74
2021/07/09 01:40:29;;;;;;;16.67;12.48;;;19.80;99.90;;;;;;5022470;28;20068;-72
2021/07/09 01:42:55;;;;;;;17.13;13.10;;;19.70;99.90;;;;;;5031418;28;20025;-75
2021/07/09 01:45:22;;;;;;;16.08;12.57;;;19.70;99.90;;;;;;5032715;28;20025;-74
2021/07/09 01:47:49;;;;;;;17.38;13.23;;;19.70;99.90;;;;;;5028938;28;20030;-75
2021/07/09 01:50:16;;;;;;;14.07;12.60;;;19.80;99.90;;;;;;5032649;28;20030;-72
2021/07/09 01:52:42;;;;;;;15.38;12.32;;;19.70;99.90;;;;;;5029277;28;20053;-72
2021/07/09 01:55:08;;;;;;;19.13;13.38;;;19.80;99.90;;;;;;5034101;28;20049;-73
2021/07/09 01:57:34;;;;;;;17.10;13.07;;;19.70;99.90;;;;;;5029144;28;20065;-71
2021/07/09 02:00:01;;;;;;;16.48;12.05;;;19.70;99.90;;;;;;5027840;28;20075;-74
2021/07/09 02:02:27;;;;;;;19.77;13.35;;;19.70;99.90;;;;;;5032546;28;20060;-75
2021/07/09 02:04:56;;;;;;;17.05;12.50;;;19.60;99.90;;;;;;5029802;28;20029;-72
2021/07/09 02:07:25;;;;;;;15.15;13.10;;;19.60;99.90;;;;;;5027697;28;20021;-72
2021/07/09 02:09:54;;;;;;;22.15;14.30;;;19.60;99.90;;;;;;5032499;28;20055;-72
2021/07/09 02:12:23;;;;;;;16.67;13.43;;;19.60;99.90;;;;;;5038246;28;20045;-73
2021/07/09 02:14:49;;;;;;;18.27;12.98;;;19.60;99.90;;;;;;5029917;28;20029;-75
2021/07/09 02:17:18;;;;;;;20.83;14.45;;;19.50;99.90;;;;;;5027933;28;20079;-71
2021/07/09 02:19:45;;;;;;;18.35;13.48;;;19.50;99.90;;;;;;5029487;28;20045;-72
2021/07/09 02:22:12;;;;;;;21.40;13.65;;;19.50;99.90;;;;;;5031664;28;20018;-72
2021/07/09 02:24:39;;;;;;;17.25;13.45;;;19.40;99.90;;;;;;5027425;28;20085;-71
2021/07/09 02:27:06;;;;;;;16.80;12.63;;;19.40;99.90;;;;;;5027331;28;20018;-72
2021/07/09 02:29:34;;;;;;;16.98;13.18;;;19.30;99.90;;;;;;5026460;28;20029;-72
2021/07/09 02:32:01;;;;;;;18.98;12.82;;;19.30;99.90;;;;;;5028655;28;20110;-75
2021/07/09 02:34:29;;;;;;;19.90;14.13;;;19.20;99.90;;;;;;5030106;28;20052;-75
2021/07/09 02:36:55;;;;;;;16.30;13.52;;;19.20;99.90;;;;;;5049503;28;20029;-75
2021/07/09 02:39:22;;;;;;;22.25;13.93;;;19.10;99.90;;;;;;5030056;28;20624;-75
2021/07/09 02:41:48;;;;;;;19.83;14.07;;;19.00;99.90;;;;;;5030045;28;20025;-75
2021/07/09 02:44:14;;;;;;;21.25;14.90;;;19.00;99.90;;;;;;5030378;28;20036;-71
2021/07/09 02:46:40;;;;;;;17.73;13.90;;;19.00;99.90;;;;;;5028555;28;20030;-72
2021/07/09 02:49:05;;;;;;;16.90;13.35;;;18.90;99.90;;;;;;5028963;28;20367;-73
2021/07/09 02:51:31;;;;;;;17.52;13.43;;;18.90;99.90;;;;;;5031000;28;20032;-72
2021/07/09 02:53:56;;;;;;;15.93;12.50;;;18.90;99.90;;;;;;5032217;28;20061;-75
2021/07/09 02:56:22;;;;;;;16.20;12.48;;;18.90;99.90;;;;;;5024590;28;20444;-71
2021/07/09 02:58:48;;;;;;;22.75;14.15;;;18.80;99.90;;;;;;5031847;28;20493;-72
2021/07/09 03:01:13;;;;;;;18.35;13.40;;;18.80;99.90;;;;;;5030594;28;20101;-71
2021/07/09 03:03:39;;;;;;;17.35;12.80;;;18.80;99.90;;;;;;5029160;28;20033;-72
2021/07/09 03:06:05;;;;;;;19.35;13.73;;;18.80;99.90;;;;;;5031130;28;20041;-74
2021/07/09 03:08:30;;;;;;;17.55;13.52;;;18.80;99.90;;;;;;5031938;28;20036;-73
2021/07/09 03:10:56;;;;;;;18.40;12.90;;;18.80;99.90;;;;;;5031871;28;20068;-71
2021/07/09 03:13:22;;;;;;;17.52;13.07;;;18.70;99.90;;;;;;5032143;28;20037;-71
2021/07/09 03:15:47;;;;;;;18.40;13.40;;;18.70;99.90;;;;;;5025032;28;20053;-72
2021/07/09 03:18:13;;;;;;;18.10;13.48;;;18.70;99.90;;;;;;5031771;28;20036;-75
2021/07/09 03:20:38;;;;;;;19.90;12.75;;;18.70;99.90;;;;;;5033073;28;20029;-71
2021/07/09 03:23:04;;;;;;;21.27;13.35;;;18.70;99.90;;;;;;5032281;28;20056;-74
2021/07/09 03:25:30;;;;;;;16.95;13.73;;;18.70;99.90;;;;;;5024626;28;20029;-72
2021/07/09 03:27:56;;;;;;;18.27;13.68;;;18.60;99.90;;;;;;5029925;28;20029;-72
2021/07/09 03:30:21;;;;;;;18.52;14.02;;;18.60;99.90;;;;;;5032501;28;20025;-74
2021/07/09 03:32:47;;;;;;;18.65;13.85;;;18.60;99.90;;;;;;5028455;28;20495;-74
2021/07/09 03:35:13;;;;;;;17.70;13.63;;;18.50;99.90;;;;;;5028060;28;20030;-76
2021/07/09 03:37:39;;;;;;;21.17;13.70;;;18.50;99.90;;;;;;5034634;28;20025;-74
2021/07/09 03:40:07;;;;;;;21.75;12.20;;;18.50;99.90;;;;;;5031771;28;20029;-72
2021/07/09 03:42:32;;;;;;;20.85;13.32;;;18.50;99.90;;;;;;5035007;28;20033;-75
2021/07/09 03:44:58;;;;;;;19.25;13.63;;;18.40;99.90;;;;;;5032775;28;20029;-75
2021/07/09 03:47:24;;;;;;;16.08;12.07;;;18.50;99.90;;;;;;5028333;28;20026;-75
2021/07/09 03:49:49;;;;;;;21.65;13.55;;;18.40;99.90;;;;;;5032115;28;20014;-74
2021/07/09 03:52:15;;;;;;;19.52;14.73;;;18.40;99.90;;;;;;5030961;28;20026;-75
2021/07/09 03:54:41;;;;;;;19.67;12.93;;;18.40;99.90;;;;;;5030388;28;20032;-74
2021/07/09 03:57:07;;;;;;;17.05;13.38;;;18.20;99.90;;;;;;5035179;28;20078;-76
2021/07/09 03:59:33;;;;;;;17.73;12.95;;;18.30;99.90;;;;;;5034718;28;20025;-75
2021/07/09 04:01:58;;;;;;;19.02;13.55;;;18.30;99.90;;;;;;5034555;28;20485;-75
2021/07/09 04:04:24;;;;;;;20.00;13.82;;;18.30;99.90;;;;;;5035014;28;20026;-75
2021/07/09 04:06:50;;;;;;;18.98;13.43;;;18.20;99.90;;;;;;5028760;28;20428;-74
2021/07/09 04:09:15;;;;;;;19.13;13.80;;;18.30;99.90;;;;;;5029881;28;20061;-76
2021/07/09 04:11:41;;;;;;;21.48;12.82;;;18.20;99.90;;;;;;5030266;28;20079;-75
2021/07/09 04:14:06;;;;;;;21.52;14.05;;;18.20;99.90;;;;;;5029045;28;20025;-74
2021/07/09 04:16:32;;;;;;;19.38;13.68;;;18.20;99.90;;;;;;5031197;28;20021;-74
2021/07/09 04:18:58;;;;;;;18.65;12.52;;;18.20;99.90;;;;;;5031539;28;20080;-75
2021/07/09 04:21:23;;;;;;;20.95;14.40;;;18.10;99.90;;;;;;5035365;28;20093;-75
2021/07/09 04:23:49;;;;;;;19.58;12.90;;;18.20;99.90;;;;;;5031739;28;20052;-75
2021/07/09 04:26:15;;;;;;;20.52;13.70;;;18.10;99.90;;;;;;5031163;28;20026;-75
2021/07/09 04:28:40;;;;;;;16.67;11.98;;;18.10;99.90;;;;;;5029716;28;20017;-75
2021/07/09 04:31:06;;;;;;;18.52;12.35;;;18.10;99.90;;;;;;5030877;28;20048;-75
2021/07/09 04:33:32;;;;;;;17.80;12.93;;;18.00;99.90;;;;;;5030845;28;20492;-74
2021/07/09 04:35:57;;;;;;;23.17;13.68;;;18.10;99.90;;;;;;5031221;28;20598;-76
2021/07/09 04:38:23;;;;;;;20.00;12.18;;;18.10;99.90;;;;;;5032585;28;20394;-75
2021/07/09 04:40:49;;;;;;;16.23;11.98;;;18.00;99.90;;;;;;5035778;28;20013;-74
2021/07/09 04:43:15;;;;;;;17.63;13.02;;;18.00;99.90;;;;;;5030749;28;20025;-76
2021/07/09 04:45:40;;;;;;;21.42;13.60;;;18.00;99.90;;;;;;5026773;28;20040;-74
2021/07/09 04:48:07;;;;;;;22.27;13.35;;;18.00;99.90;;;;;;5034232;28;20028;-75
2021/07/09 04:50:33;;;;;;;18.08;12.80;;;18.00;99.90;;;;;;5029113;28;20029;-74
2021/07/09 04:52:59;;;;;;;19.35;13.65;;;18.00;99.90;;;;;;5032494;28;20378;-75
2021/07/09 04:55:25;;;;;;;19.38;14.35;;;18.00;99.90;;;;;;5034178;28;20021;-74
2021/07/09 04:57:51;;;;;;;20.63;14.65;;;18.10;99.90;;;;;;5032370;28;20022;-75
2021/07/09 05:00:16;;;;;;;23.15;14.35;;;18.00;99.90;;;;;;5031843;28;20043;-74
2021/07/09 05:02:42;;;;;;;19.08;13.88;;;18.10;99.90;;;;;;5033467;28;20496;-75
2021/07/09 05:05:10;;;;;;;17.25;13.73;;;18.10;99.90;;;;;;5029127;28;20034;-74
2021/07/09 05:07:35;;;;;;;21.95;14.80;;;18.10;99.90;;;;;;5029854;28;20029;-75
2021/07/09 05:10:06;;;;;;;20.65;14.73;;;18.10;99.90;;;;;;5031901;28;20021;-75
2021/07/09 05:12:32;;;;;;;24.58;15.68;;;18.10;99.90;;;;;;5031746;28;20105;-75
2021/07/09 05:14:57;;;;;;;22.75;15.30;;;18.20;99.90;;;;;;5030534;28;20030;-75
2021/07/09 05:17:23;;;;;;;18.02;13.65;;;18.20;99.90;;;;;;5029817;28;20044;-75
2021/07/09 05:19:52;;;;;;;22.27;15.00;;;18.20;99.90;;;;;;5034795;28;20033;-76
2021/07/09 05:22:19;;;;;;;22.38;14.02;;;18.20;99.90;;;;;;5032779;28;20025;-75
2021/07/09 05:24:45;;;;;;;19.75;12.95;;;18.20;99.90;;;;;;5034426;28;20022;-74
2021/07/09 05:27:11;;;;;;;24.88;14.93;;;18.20;99.90;;;;;;5023483;28;20474;-76
2021/07/09 05:29:36;;;;;;;22.33;13.88;;;18.20;99.90;;;;;;5034204;28;20072;-75
2021/07/09 05:32:03;;;;;;;24.30;14.30;;;18.20;99.90;;;;;;5031075;28;20032;-75
2021/07/09 05:34:30;;;;;;;18.27;14.40;;;18.30;99.90;;;;;;5033456;28;20481;-73
2021/07/09 05:36:56;;;;;;;23.83;14.77;;;18.30;99.90;;;;;;5028622;28;20030;-75
2021/07/09 05:39:22;;;;;;;20.63;14.07;;;18.30;99.90;;;;;;5032160;28;20386;-76
2021/07/09 05:41:48;;;;;;;23.92;15.52;;;18.20;99.90;;;;;;5032222;28;20026;-76
2021/07/09 05:44:13;;;;;;;21.38;15.35;;;18.30;99.90;;;;;;5029308;28;20036;-75
2021/07/09 05:46:39;;;;;;;21.05;15.10;;;18.40;99.90;;;;;;5031929;28;20044;-75
2021/07/09 05:49:05;;;;;;;21.65;13.32;;;18.30;99.90;;;;;;5033205;28;20033;-75
2021/07/09 05:51:30;;;;;;;22.48;15.32;;;18.30;99.90;;;;;;5033813;28;20072;-73
2021/07/09 05:53:56;;;;;;;22.45;14.98;;;18.30;99.90;;;;;;5032848;28;20503;-75
2021/07/09 05:56:22;;;;;;;21.80;15.70;;;18.40;99.90;;;;;;5031474;28;20486;-75
2021/07/09 05:58:47;;;;;;;20.52;13.90;;;18.40;99.90;;;;;;5032166;28;20102;-75
2021/07/09 06:01:13;;;;;;;23.67;15.13;;;18.40;99.90;;;;;;5028038;28;20037;-75
2021/07/09 06:03:39;;;;;;;25.25;17.23;;;18.40;99.90;;;;;;5032691;28;20037;-75
2021/07/09 06:06:04;;;;;;;25.80;18.63;;;18.40;99.90;;;;;;5031559;28;20381;-75
2021/07/09 06:08:30;;;;;;;24.00;16.00;;;18.50;99.90;;;;;;5032423;28;20025;-76
2021/07/09 06:10:59;;;;;;;23.75;16.88;;;18.40;99.90;;;;;;5032613;28;20108;-74
2021/07/09 06:13:24;;;;;;;28.48;17.13;;;18.60;99.90;;;;;;5033764;28;20028;-75
2021/07/09 06:15:50;;;;;;;25.23;17.85;;;18.50;99.90;;;;;;5033160;28;20021;-75
2021/07/09 06:18:16;;;;;;;29.52;20.10;;;18.60;99.90;;;;;;5032469;28;20037;-75
2021/07/09 06:20:42;;;;;;;27.38;18.17;;;18.70;99.90;;;;;;5028346;28;20812;-74
2021/07/09 06:23:07;;;;;;;26.40;18.20;;;18.70;99.90;;;;;;5027376;28;20026;-75
2021/07/09 06:25:33;;;;;;;28.27;17.90;;;18.70;99.90;;;;;;5031655;28;20037;-75
2021/07/09 06:27:59;;;;;;;24.95;17.50;;;18.70;99.90;;;;;;5031729;28;20059;-75
2021/07/09 06:30:24;;;;;;;25.52;18.15;;;18.70;99.90;;;;;;5033920;28;20041;-76
2021/07/09 06:32:50;;;;;;;28.70;19.38;;;18.70;99.90;;;;;;5029653;28;20025;-75
2021/07/09 06:35:16;;;;;;;31.77;20.95;;;18.60;99.90;;;;;;5046549;28;20083;-75
2021/07/09 06:37:41;;;;;;;28.65;19.42;;;18.70;99.90;;;;;;5033956;28;20056;-75
2021/07/09 06:40:09;;;;;;;33.35;21.83;;;18.70;99.90;;;;;;5028407;28;20037;-75
2021/07/09 06:42:35;;;;;;;31.30;21.13;;;18.70;99.90;;;;;;5031707;28;20025;-75
2021/07/09 06:45:01;;;;;;;29.73;20.27;;;18.80;99.90;;;;;;5031690;28;20025;-75
2021/07/09 06:47:27;;;;;;;29.15;19.83;;;18.90;99.90;;;;;;5027046;28;20025;-75
2021/07/09 06:49:53;;;;;;;27.58;20.42;;;19.10;99.90;;;;;;5031022;28;20017;-75
2021/07/09 06:52:18;;;;;;;29.65;20.27;;;19.10;99.90;;;;;;5032409;28;20385;-75
2021/07/09 06:54:44;;;;;;;34.75;20.33;;;19.10;99.90;;;;;;5031955;28;20026;-75
2021/07/09 06:57:10;;;;;;;31.92;19.80;;;19.30;99.90;;;;;;5032989;28;20397;-75
2021/07/09 06:59:36;;;;;;;29.83;19.17;;;19.50;99.90;;;;;;5026399;28;20524;-76
2021/07/09 07:02:02;;;;;;;28.35;18.48;;;19.60;99.90;;;;;;5029684;28;20018;-75
2021/07/09 07:04:28;;;;;;;29.95;20.02;;;19.70;99.90;;;;;;5030323;28;20030;-76
2021/07/09 07:06:53;;;;;;;29.13;20.20;;;19.80;99.90;;;;;;5027561;28;20025;-75
2021/07/09 07:09:20;;;;;;;31.63;21.33;;;19.80;99.90;;;;;;5030253;28;20505;-75
2021/07/09 07:11:45;;;;;;;30.95;20.33;;;19.80;99.90;;;;;;5037150;28;20025;-76
2021/07/09 07:14:11;;;;;;;30.83;21.25;;;19.90;99.90;;;;;;5031077;28;20021;-75
2021/07/09 07:16:37;;;;;;;29.00;19.40;;;20.10;99.90;;;;;;5033820;28;20442;-75
2021/07/09 07:19:03;;;;;;;27.02;19.00;;;20.10;99.90;;;;;;5035441;28;20047;-74
2021/07/09 07:21:28;;;;;;;30.08;19.42;;;20.30;99.90;;;;;;5036021;28;20025;-76
2021/07/09 07:23:54;;;;;;;29.52;19.08;;;20.40;99.90;;;;;;5036218;28;20021;-75
2021/07/09 07:26:20;;;;;;;27.70;18.67;;;20.40;99.90;;;;;;5028807;28;20030;-76
2021/07/09 07:28:45;;;;;;;30.42;20.30;;;20.50;99.90;;;;;;5030982;28;20026;-75
2021/07/09 07:31:12;;;;;;;27.88;19.52;;;20.60;99.90;;;;;;5028194;28;20056;-76
2021/07/09 07:33:39;;;;;;;30.20;19.17;;;20.60;99.90;;;;;;5029869;28;20055;-76
2021/07/09 07:36:05;;;;;;;26.92;18.90;;;20.80;99.90;;;;;;5031382;28;20033;-78
2021/07/09 07:38:31;;;;;;;24.98;16.48;;;20.90;99.90;;;;;;5031990;28;20026;-75
2021/07/09 07:40:56;;;;;;;25.85;17.80;;;21.00;99.90;;;;;;5035443;28;20433;-74
2021/07/09 07:43:22;;;;;;;28.20;20.33;;;21.00;99.90;;;;;;5030683;28;20043;-74
2021/07/09 07:45:48;;;;;;;26.35;19.35;;;21.10;99.90;;;;;;5003146;28;20384;-75
2021/07/09 07:48:13;;;;;;;27.00;19.15;;;21.20;99.90;;;;;;5030028;28;20092;-75
2021/07/09 07:50:39;;;;;;;27.73;19.50;;;21.30;99.90;;;;;;5031579;28;20020;-75
2021/07/09 07:53:05;;;;;;;27.25;18.13;;;21.20;99.90;;;;;;5029851;28;20075;-74
2021/07/09 07:55:31;;;;;;;23.73;18.33;;;21.40;99.90;;;;;;5022593;28;20025;-75
2021/07/09 07:57:57;;;;;;;26.00;16.80;;;21.50;99.90;;;;;;5035216;28;20029;-74
2021/07/09 08:00:22;;;;;;;23.05;17.50;;;21.40;99.90;;;;;;5030751;28;20057;-74
2021/07/09 08:02:48;;;;;;;23.38;18.40;;;21.40;99.90;;;;;;5023406;28;20098;-72
2021/07/09 08:05:14;;;;;;;24.45;16.75;;;21.30;99.90;;;;;;5035003;28;20493;-74
2021/07/09 08:07:42;;;;;;;21.65;15.70;;;21.20;99.90;;;;;;5036112;28;20020;-76
2021/07/09 08:10:09;;;;;;;18.42;13.80;;;21.30;99.90;;;;;;5034541;28;20021;-75
2021/07/09 08:12:35;;;;;;;21.70;15.13;;;21.30;99.90;;;;;;5035671;28;20385;-74
2021/07/09 08:15:01;;;;;;;19.45;14.13;;;21.50;99.90;;;;;;5032918;28;20481;-74
2021/07/09 08:17:27;;;;;;;20.08;14.25;;;21.50;99.90;;;;;;5033220;28;20025;-73
2021/07/09 08:19:53;;;;;;;24.40;15.50;;;21.40;99.90;;;;;;5031324;28;20075;-74
2021/07/09 08:22:18;;;;;;;25.27;15.02;;;21.60;99.90;;;;;;5030463;28;20025;-73
2021/07/09 08:24:45;;;;;;;19.95;13.32;;;21.60;99.90;;;;;;5030106;28;20366;-73
2021/07/09 08:27:10;;;;;;;21.27;13.10;;;21.70;99.90;;;;;;5032708;28;20032;-75
2021/07/09 08:29:36;;;;;;;20.05;13.52;;;21.70;99.90;;;;;;5032900;28;20029;-75
2021/07/09 08:32:02;;;;;;;19.35;13.85;;;21.80;99.90;;;;;;5034212;28;20048;-75
2021/07/09 08:34:27;;;;;;;22.08;12.52;;;21.70;99.90;;;;;;5030947;28;20029;-73
2021/07/09 08:36:53;;;;;;;19.30;14.80;;;21.80;99.90;;;;;;5030113;28;20022;-74
2021/07/09 08:39:19;;;;;;;18.52;13.48;;;21.70;99.90;;;;;;5034131;28;20041;-74
2021/07/09 08:41:48;;;;;;;18.63;14.45;;;21.80;99.90;;;;;;5033178;28;20033;-73
2021/07/09 08:44:14;;;;;;;20.33;14.80;;;22.00;99.90;;;;;;5029874;28;20028;-74
2021/07/09 08:46:41;;;;;;;20.30;15.43;;;22.00;99.90;;;;;;5028122;28;20072;-74
2021/07/09 08:49:15;;;;;;;19.40;14.35;;;21.90;99.90;;;;;;5032760;28;20064;-71
2021/07/09 08:51:41;;;;;;;20.75;15.77;;;22.00;99.90;;;;;;5031695;28;20148;-73
2021/07/09 08:54:11;;;;;;;21.95;16.60;;;22.20;99.90;;;;;;5031829;28;20471;-73
2021/07/09 08:56:38;;;;;;;23.50;16.80;;;22.30;99.90;;;;;;5032042;28;20033;-70
2021/07/09 08:59:03;;;;;;;21.98;15.45;;;22.30;99.90;;;;;;5031952;28;20025;-72
2021/07/09 09:01:29;;;;;;;21.38;16.67;;;22.30;99.90;;;;;;5030324;28;20025;-74
2021/07/09 09:04:05;;;;;;;22.95;15.32;;;22.30;99.90;;;;;;5024193;28;20076;-71
2021/07/09 09:06:31;;;;;;;19.98;15.48;;;22.30;99.90;;;;;;5032876;28;20026;-73
2021/07/09 09:08:56;;;;;;;21.08;16.20;;;22.40;99.90;;;;;;5031983;28;20515;-72
2021/07/09 09:11:22;;;;;;;20.30;14.77;;;22.60;99.90;;;;;;5034753;28;20539;-74
2021/07/09 09:13:48;;;;;;;17.92;14.95;;;22.70;99.90;;;;;;5030011;28;20078;-72
2021/07/09 09:16:16;;;;;;;21.83;16.23;;;22.80;99.90;;;;;;5027662;28;20615;-72
2021/07/09 09:18:57;;;;;;;20.23;16.83;;;23.00;99.90;;;;;;5028214;28;20144;-72
2021/07/09 09:21:24;;;;;;;22.58;16.30;;;22.90;99.90;;;;;;5043647;28;20393;-73
2021/07/09 09:23:50;;;;;;;27.27;17.80;;;23.00;99.90;;;;;;5008004;28;20131;-73
2021/07/09 09:26:44;;;;;;;20.58;18.15;;;23.00;99.90;;;;;;4992835;28;20362;-72
2021/07/09 09:29:14;;;;;;;21.92;18.25;;;23.10;99.90;;;;;;5018390;28;20049;-72
2021/07/09 09:31:40;;;;;;;20.45;18.10;;;23.10;99.90;;;;;;5032562;28;20029;-71
2021/07/09 09:34:07;;;;;;;26.05;21.35;;;23.00;99.90;;;;;;5030037;28;20083;-72
2021/07/09 09:36:33;;;;;;;25.35;21.63;;;23.20;99.90;;;;;;5027416;28;20034;-72
2021/07/09 09:39:02;;;;;;;26.23;20.95;;;23.40;99.90;;;;;;5030633;28;20021;-72
2021/07/09 09:41:29;;;;;;;21.60;18.33;;;23.40;99.90;;;;;;5032100;28;20524;-71
2021/07/09 09:44:14;;;;;;;26.15;19.77;;;23.40;99.90;;;;;;5030727;28;20068;-71
2021/07/09 09:46:40;;;;;;;33.67;21.08;;;23.40;99.90;;;;;;5024010;28;20026;-72
2021/07/09 09:49:11;;;;;;;35.97;21.98;;;23.60;99.90;;;;;;5025742;28;20036;-72
2021/07/09 09:51:37;;;;;;;26.48;22.05;;;23.70;99.90;;;;;;5034547;28;20033;-71
2021/07/09 09:54:07;;;;;;;25.95;21.52;;;23.80;99.90;;;;;;5030491;28;20025;-71
2021/07/09 09:56:35;;;;;;;25.92;23.13;;;23.90;99.90;;;;;;5031357;28;20033;-72
2021/07/09 09:59:23;;;;;;;27.90;21.92;;;23.90;99.90;;;;;;5029023;28;20454;-71
2021/07/09 10:01:58;;;;;;;30.75;23.02;;;23.70;99.90;;;;;;5024469;28;20029;-72
2021/07/09 10:04:26;;;;;;;30.73;21.85;;;23.60;99.90;;;;;;5029141;28;20448;-74
2021/07/09 10:06:53;;;;;;;25.88;20.77;;;23.80;99.90;;;;;;5025950;28;20809;-73
2021/07/09 10:09:20;;;;;;;29.90;23.23;;;24.00;99.90;;;;;;5029030;28;20064;-72
2021/07/09 10:11:46;;;;;;;25.70;23.10;;;24.20;99.90;;;;;;5027527;28;20024;-71
2021/07/09 10:14:20;;;;;;;30.95;25.50;;;24.30;99.90;;;;;;5031324;28;20096;-71
2021/07/09 10:16:48;;;;;;;29.10;23.67;;;24.00;99.90;;;;;;5038799;28;20028;-71
2021/07/09 10:19:20;;;;;;;30.02;24.13;;;23.70;99.90;;;;;;5032268;28;20033;-71
2021/07/09 10:21:46;;;;;;;31.88;25.13;;;23.60;99.90;;;;;;5030957;28;20017;-71
2021/07/09 10:24:15;;;;;;;27.77;23.20;;;23.80;99.90;;;;;;5032349;28;20087;-73
2021/07/09 10:26:44;;;;;;;27.80;23.70;;;23.70;99.90;;;;;;5029935;28;20486;-72
2021/07/09 10:29:13;;;;;;;31.70;25.30;;;23.50;99.90;;;;;;5026879;28;20042;-73
2021/07/09 10:31:41;;;;;;;34.15;26.02;;;23.90;99.90;;;;;;5026786;28;20056;-74
2021/07/09 10:34:41;;;;;;;27.25;24.23;;;23.70;99.90;;;;;;5031078;28;20022;-72
2021/07/09 10:37:09;;;;;;;27.98;24.98;;;23.60;99.90;;;;;;5021427;28;20442;-73
2021/07/09 10:39:36;;;;;;;29.48;24.90;;;23.50;99.90;;;;;;5028670;28;20033;-74
2021/07/09 10:42:20;;;;;;;27.40;24.30;;;23.40;99.90;;;;;;5028985;28;20021;-74
2021/07/09 10:45:08;;;;;;;24.15;21.35;;;23.40;99.90;;;;;;5033789;28;20040;-74
2021/07/09 10:47:47;;;;;;;26.50;21.63;;;23.40;99.90;;;;;;5039609;28;20481;-75
2021/07/09 10:50:19;;;;;;;28.83;20.90;;;23.80;99.90;;;;;;5035579;28;20060;-74
2021/07/09 10:52:52;;;;;;;;;;;23.80;99.90;;;;;;5038832;28;20079;-75
2021/07/09 10:55:27;;;;;;;24.10;18.70;;;24.20;99.90;;;;;;5036986;28;19905;-70
2021/07/09 10:58:19;;;;;;;24.85;21.17;;;24.20;99.90;;;;;;5024965;28;20045;-75
2021/07/09 11:00:55;;;;;;;20.63;17.55;;;24.20;99.90;;;;;;5026694;28;20095;-73
2021/07/09 11:03:35;;;;;;;19.85;15.70;;;24.00;99.90;;;;;;5038270;28;20083;-72
2021/07/09 11:06:20;;;;;;;19.10;15.70;;;24.00;99.90;;;;;;5037956;28;20041;-75
2021/07/09 11:08:51;;;;;;;19.13;16.00;;;24.40;99.90;;;;;;5030126;28;20060;-75
2021/07/09 11:11:37;;;;;;;18.27;15.70;;;24.80;99.90;;;;;;5033814;28;20033;-76
2021/07/09 11:14:33;;;;;;;18.27;14.00;;;24.80;99.90;;;;;;5034386;28;20040;-75
2021/07/09 11:17:12;;;;;;;15.25;11.13;;;24.80;99.90;;;;;;5031988;28;20497;-73
2021/07/09 11:19:38;;;;;;;10.70;9.60;;;25.20;99.90;;;;;;5034195;28;20042;-72
2021/07/09 11:22:06;;;;;;;11.07;9.95;;;25.30;99.90;;;;;;5036138;28;20094;-71
2021/07/09 11:24:36;;;;;;;13.20;10.65;;;25.20;99.90;;;;;;5038278;28;20048;-74
2021/07/09 11:27:07;;;;;;;10.93;9.82;;;25.20;99.90;;;;;;5029346;28;20025;-71
2021/07/09 11:29:40;;;;;;;15.52;10.95;;;25.50;99.90;;;;;;5035394;28;20314;-71
2021/07/09 11:32:12;;;;;;;13.88;10.52;;;25.70;99.90;;;;;;5027243;28;20048;-75
2021/07/09 11:34:40;;;;;;;10.52;7.47;;;25.80;99.90;;;;;;5036337;28;20032;-70
2021/07/09 11:37:16;;;;;;;10.18;7.90;;;25.80;99.90;;;;;;5037047;28;20425;-74
2021/07/09 11:39:48;;;;;;;11.07;8.30;;;26.00;99.90;;;;;;5033085;28;20037;-71
2021/07/09 11:42:15;;;;;;;11.32;8.90;;;26.00;99.90;;;;;;5036198;28;20416;-74
2021/07/09 11:44:40;;;;;;;11.13;9.75;;;26.10;99.90;;;;;;5035858;28;20497;-70
2021/07/09 11:47:09;;;;;;;13.93;10.25;;;25.90;99.90;;;;;;5034963;28;20033;-75
2021/07/09 11:49:38;;;;;;;10.50;9.25;;;25.70;99.90;;;;;;5035474;28;20382;-78
2021/07/09 11:52:06;;;;;;;11.70;9.90;;;25.30;99.90;;;;;;5035710;28;20104;-78
2021/07/09 11:54:35;;;;;;;10.45;9.18;;;25.00;99.90;;;;;;5038876;28;20052;-76
2021/07/09 11:57:11;;;;;;;16.90;10.05;;;24.80;99.90;;;;;;5032931;28;20018;-70
2021/07/09 11:59:38;;;;;;;99.22;13.80;;;24.70;99.90;;;;;;5030417;28;20029;-72
2021/07/09 12:02:08;;;;;;;13.27;9.18;;;24.70;99.90;;;;;;5031950;28;20421;-71
2021/07/09 12:04:45;;;;;;;12.02;9.65;;;24.50;99.90;;;;;;5034525;28;20025;-76
2021/07/09 12:07:26;;;;;;;21.05;9.50;;;24.50;99.90;;;;;;5034683;28;20028;-71
2021/07/09 12:09:55;;;;;;;12.07;8.85;;;24.40;99.90;;;;;;5036861;28;20378;-77
2021/07/09 12:12:22;;;;;;;119.35;13.05;;;24.40;99.90;;;;;;5030763;28;20032;-71
2021/07/09 12:15:03;;;;;;;81.60;12.00;;;24.30;99.90;;;;;;5034444;28;20095;-71
2021/07/09 12:17:31;;;;;;;11.48;8.48;;;24.60;99.90;;;;;;5033126;28;20104;-71
2021/07/09 12:20:18;;;;;;;10.25;7.50;;;24.50;99.90;;;;;;5033188;28;20069;-77
2021/07/09 12:22:50;;;;;;;11.15;7.97;;;24.50;99.90;;;;;;5032714;28;20085;-72
2021/07/09 12:25:20;;;;;;;9.32;7.10;;;24.50;99.90;;;;;;5034357;28;20062;-79
2021/07/09 12:27:46;;;;;;;7.15;6.45;;;24.40;99.90;;;;;;5032935;28;20026;-72
2021/07/09 12:30:15;;;;;;;9.90;6.22;;;24.60;99.90;;;;;;5034067;28;20385;-78
2021/07/09 12:32:56;;;;;;;9.10;6.65;;;24.60;99.90;;;;;;5024806;28;20059;-77